createdAt,value
2018-12-10T00:01:24.172Z,86.87
2018-12-10T00:03:51.717Z,87.02
2018-12-10T00:06:23.302Z,86.83
2018-12-10T00:08:50.842Z,86.37
2018-12-10T00:11:18.290Z,86.38
2018-12-10T00:13:45.699Z,86.15
2018-12-10T00:16:13.153Z,86.29
2018-12-10T00:18:40.574Z,86.44
2018-12-10T00:21:08.004Z,85.88
2018-12-10T00:23:35.462Z,86.03
2018-12-10T00:26:02.954Z,86.06
2018-12-10T00:28:30.381Z,85.79
2018-12-10T00:30:57.898Z,86.12
2018-12-10T00:33:25.321Z,86.10
2018-12-10T00:35:52.750Z,86.12
2018-12-10T00:38:20.185Z,85.88
2018-12-10T00:40:47.628Z,86.02
2018-12-10T00:43:15.237Z,85.83
2018-12-10T00:45:42.695Z,85.95
2018-12-10T00:48:10.138Z,85.64
2018-12-10T00:50:37.551Z,86.12
2018-12-10T00:53:05.010Z,85.91
2018-12-10T00:55:32.533Z,85.41
2018-12-10T00:57:59.989Z,85.38
2018-12-10T01:00:27.387Z,85.49
2018-12-10T01:02:54.823Z,85.50
2018-12-10T01:05:22.474Z,85.71
2018-12-10T01:07:49.895Z,85.56
2018-12-10T01:10:17.635Z,85.69
2018-12-10T01:12:45.069Z,86.01
2018-12-10T01:15:12.823Z,86.23
2018-12-10T01:17:40.252Z,85.80
2018-12-10T01:20:07.931Z,85.86
2018-12-10T01:22:35.379Z,85.80
2018-12-10T01:25:02.830Z,85.64
2018-12-10T01:27:30.247Z,85.59
2018-12-10T01:29:57.686Z,85.69
2018-12-10T01:32:25.165Z,85.27
2018-12-10T01:34:52.599Z,85.30
2018-12-10T01:37:20.037Z,85.67
2018-12-10T01:39:47.464Z,85.84
2018-12-10T01:42:14.886Z,85.43
2018-12-10T01:44:42.313Z,86.13
2018-12-10T01:47:09.837Z,86.14
2018-12-10T01:49:37.234Z,85.93
2018-12-10T01:52:04.670Z,85.83
2018-12-10T01:54:32.087Z,85.60
2018-12-10T01:56:59.531Z,86.01
2018-12-10T01:59:26.960Z,85.84
2018-12-10T02:01:54.513Z,86.11
2018-12-10T02:04:22.042Z,86.33
2018-12-10T02:06:49.473Z,86.87
2018-12-10T02:09:17.071Z,86.78
2018-12-10T02:11:44.530Z,86.79
2018-12-10T02:14:11.957Z,87.22
2018-12-10T02:16:44.361Z,86.87
2018-12-10T02:19:11.789Z,87.19
2018-12-10T02:21:43.418Z,87.07
2018-12-10T02:24:11.028Z,87.06
2018-12-10T02:26:38.490Z,86.90
2018-12-10T02:29:11.418Z,87.24
2018-12-10T02:31:38.854Z,87.23
2018-12-10T02:34:06.297Z,87.53
2018-12-10T02:36:33.723Z,87.38
2018-12-10T02:39:01.435Z,87.13
2018-12-10T02:41:29.099Z,87.42
2018-12-10T02:43:56.593Z,87.63
2018-12-10T02:46:24.258Z,86.94
2018-12-10T02:48:51.697Z,87.30
2018-12-10T02:51:19.223Z,87.35
2018-12-10T02:53:46.648Z,87.52
2018-12-10T02:56:14.166Z,87.76
2018-12-10T02:58:41.618Z,87.56
2018-12-10T03:01:09.024Z,87.61
2018-12-10T03:03:36.753Z,87.49
2018-12-10T03:06:04.198Z,87.27
2018-12-10T03:08:31.641Z,87.45
2018-12-10T03:10:59.199Z,87.69
2018-12-10T03:13:26.623Z,87.44
2018-12-10T03:15:54.031Z,87.65
2018-12-10T03:18:21.496Z,87.75
2018-12-10T03:20:49.128Z,87.91
2018-12-10T03:23:16.647Z,87.49
2018-12-10T03:25:44.390Z,87.64
2018-12-10T03:28:11.794Z,88.12
2018-12-10T03:30:39.312Z,88.34
2018-12-10T03:33:06.727Z,88.05
2018-12-10T03:35:34.250Z,87.18
2018-12-10T03:38:01.662Z,87.51
2018-12-10T03:40:29.084Z,87.59
2018-12-10T03:42:56.499Z,87.01
2018-12-10T03:45:23.936Z,87.25
2018-12-10T03:47:51.356Z,87.00
2018-12-10T03:50:18.976Z,87.06
2018-12-10T03:52:46.394Z,86.72
2018-12-10T03:55:13.958Z,86.78
2018-12-10T03:57:41.369Z,87.15
2018-12-10T04:00:08.858Z,86.84
2018-12-10T04:02:36.299Z,86.49
2018-12-10T04:05:04.357Z,86.31
2018-12-10T04:07:31.791Z,86.57
2018-12-10T04:09:59.381Z,86.36
2018-12-10T04:12:26.832Z,86.14
2018-12-10T04:14:54.243Z,86.51
2018-12-10T04:17:22.051Z,86.50
2018-12-10T04:19:49.476Z,86.46
2018-12-10T04:22:17.059Z,86.58
2018-12-10T04:24:45.742Z,86.46
2018-12-10T04:27:13.352Z,85.85
2018-12-10T04:29:40.768Z,86.28
2018-12-10T04:32:08.192Z,86.20
2018-12-10T04:34:35.633Z,85.91
2018-12-10T04:37:03.206Z,85.39
2018-12-10T04:39:30.627Z,85.37
2018-12-10T04:41:58.058Z,85.51
2018-12-10T04:44:25.586Z,85.68
2018-12-10T04:46:53.042Z,85.99
2018-12-10T04:49:20.478Z,85.69
2018-12-10T04:51:48.019Z,86.03
2018-12-10T04:54:15.560Z,85.95
2018-12-10T04:56:42.962Z,86.05
2018-12-10T04:59:10.396Z,86.14
2018-12-10T05:01:37.829Z,86.01
2018-12-10T05:04:05.319Z,86.02
2018-12-10T05:06:32.749Z,86.16
2018-12-10T05:09:00.156Z,86.28
2018-12-10T05:11:27.588Z,86.30
2018-12-10T05:13:55.209Z,86.27
2018-12-10T05:16:22.622Z,86.71
2018-12-10T05:18:50.047Z,86.77
2018-12-10T05:21:17.535Z,86.96
2018-12-10T05:23:44.960Z,87.39
2018-12-10T05:26:12.435Z,87.82
2018-12-10T05:28:39.939Z,87.22
2018-12-10T05:31:07.460Z,87.57
2018-12-10T05:33:34.926Z,87.76
2018-12-10T05:36:02.338Z,87.88
2018-12-10T05:38:29.759Z,87.29
2018-12-10T05:40:57.285Z,87.14
2018-12-10T05:43:24.700Z,87.05
2018-12-10T05:45:52.135Z,86.65
2018-12-10T05:48:19.654Z,87.05
2018-12-10T05:50:47.170Z,87.16
2018-12-10T05:53:14.582Z,87.24
2018-12-10T05:55:41.998Z,87.19
2018-12-10T05:58:09.431Z,87.37
2018-12-10T06:00:36.866Z,87.42
2018-12-10T06:03:04.306Z,87.53
2018-12-10T06:05:31.705Z,87.78
2018-12-10T06:07:59.159Z,87.84
2018-12-10T06:10:26.570Z,87.39
2018-12-10T06:12:54.009Z,87.62
2018-12-10T06:15:21.575Z,87.50
2018-12-10T06:17:49.046Z,87.36
2018-12-10T06:20:16.511Z,87.62
2018-12-10T06:22:43.954Z,87.44
2018-12-10T06:25:11.591Z,87.46
2018-12-10T06:27:39.211Z,87.49
2018-12-10T06:30:07.004Z,87.66
2018-12-10T06:32:34.499Z,87.28
2018-12-10T06:35:01.950Z,87.08
2018-12-10T06:37:37.345Z,86.92
2018-12-10T06:39:58.921Z,87.12
2018-12-10T06:42:26.375Z,86.91
2018-12-10T06:44:53.789Z,87.13
2018-12-10T06:47:21.198Z,87.14
2018-12-10T06:49:48.626Z,87.10
2018-12-10T06:52:16.053Z,86.76
2018-12-10T06:54:44.234Z,86.74
2018-12-10T06:57:11.654Z,86.76
2018-12-10T06:59:39.103Z,86.33
2018-12-10T07:02:06.523Z,86.15
2018-12-10T07:04:34.067Z,86.31
2018-12-10T07:07:01.469Z,86.58
2018-12-10T07:09:28.899Z,86.27
2018-12-10T07:11:56.314Z,86.53
2018-12-10T07:14:23.912Z,86.47
2018-12-10T07:16:51.343Z,86.19
2018-12-10T07:19:18.797Z,86.39
2018-12-10T07:21:46.232Z,86.71
2018-12-10T07:24:13.633Z,86.82
2018-12-10T07:26:41.072Z,86.90
2018-12-10T07:29:08.606Z,87.04
2018-12-10T07:31:36.010Z,86.91
2018-12-10T07:34:03.474Z,87.32
2018-12-10T07:36:31.054Z,87.14
2018-12-10T07:38:58.608Z,86.71
2018-12-10T07:41:26.234Z,87.16
2018-12-10T07:43:53.767Z,87.21
2018-12-10T07:46:21.714Z,86.87
2018-12-10T07:48:49.139Z,87.08
2018-12-10T07:51:16.639Z,86.59
2018-12-10T07:53:44.052Z,86.78
2018-12-10T07:56:11.478Z,87.09
2018-12-10T07:58:38.902Z,87.05
2018-12-10T08:01:06.408Z,86.93
2018-12-10T08:03:33.819Z,86.84
2018-12-10T08:06:01.254Z,87.00
2018-12-10T08:08:28.681Z,87.04
2018-12-10T08:10:56.111Z,87.71
2018-12-10T08:13:23.528Z,87.20
2018-12-10T08:15:50.997Z,87.17
2018-12-10T08:18:18.411Z,87.11
2018-12-10T08:20:45.844Z,87.31
2018-12-10T08:23:13.355Z,86.62
2018-12-10T08:25:40.917Z,86.63
2018-12-10T08:28:08.438Z,86.78
2018-12-10T08:30:35.854Z,86.78
2018-12-10T08:33:03.403Z,86.79
2018-12-10T08:35:30.973Z,87.26
2018-12-10T08:37:58.446Z,86.66
2018-12-10T08:40:25.887Z,86.75
2018-12-10T08:42:53.527Z,86.89
2018-12-10T08:45:20.975Z,86.96
2018-12-10T08:47:48.540Z,86.18
2018-12-10T08:50:15.994Z,86.19
2018-12-10T08:52:43.410Z,86.05
2018-12-10T08:55:10.835Z,86.12
2018-12-10T08:57:38.278Z,85.90
2018-12-10T09:00:06.965Z,86.21
2018-12-10T09:02:34.730Z,86.07
2018-12-10T09:05:02.167Z,86.17
2018-12-10T09:07:29.621Z,85.91
2018-12-10T09:09:57.165Z,85.67
2018-12-10T09:12:24.730Z,85.45
2018-12-10T09:14:52.281Z,85.79
2018-12-10T09:17:19.702Z,85.48
2018-12-10T09:19:47.237Z,85.34
2018-12-10T09:22:14.669Z,85.23
2018-12-10T09:24:42.184Z,85.00
2018-12-10T09:27:09.638Z,84.99
2018-12-10T09:29:37.196Z,84.91
2018-12-10T09:32:04.810Z,85.27
2018-12-10T09:34:32.436Z,85.02
2018-12-10T09:36:59.848Z,84.49
2018-12-10T09:39:27.315Z,84.66
2018-12-10T09:41:54.738Z,84.86
2018-12-10T09:44:22.218Z,84.66
2018-12-10T09:46:58.443Z,83.91
2018-12-10T09:49:19.241Z,83.41
2018-12-10T09:51:47.062Z,83.53
2018-12-10T09:54:14.702Z,83.58
2018-12-10T09:56:42.324Z,83.60
2018-12-10T09:59:09.760Z,83.48
2018-12-10T10:01:37.272Z,83.70
2018-12-10T10:04:04.762Z,82.57
2018-12-10T10:06:32.225Z,82.76
2018-12-10T10:08:59.954Z,82.54
2018-12-10T10:11:27.390Z,81.87
2018-12-10T10:13:54.924Z,81.99
2018-12-10T10:16:23.003Z,82.16
2018-12-10T10:18:50.457Z,81.74
2018-12-10T10:21:17.915Z,81.52
2018-12-10T10:23:45.890Z,81.51
2018-12-10T10:26:13.364Z,81.68
2018-12-10T10:28:40.935Z,81.67
2018-12-10T10:31:08.367Z,82.34
2018-12-10T10:33:35.825Z,82.69
2018-12-10T10:36:03.322Z,83.03
2018-12-10T10:38:30.751Z,82.81
2018-12-10T10:40:58.187Z,82.92
2018-12-10T10:43:25.658Z,82.78
2018-12-10T10:45:53.088Z,83.71
2018-12-10T10:48:20.545Z,83.13
2018-12-10T10:50:48.060Z,82.61
2018-12-10T10:53:15.551Z,82.49
2018-12-10T10:55:43.099Z,82.48
2018-12-10T10:58:10.553Z,82.39
2018-12-10T11:00:43.727Z,82.48
2018-12-10T11:06:11.679Z,83.26
2018-12-10T11:08:39.166Z,83.25
2018-12-10T11:11:06.645Z,83.17
2018-12-10T11:13:34.053Z,83.22
2018-12-10T11:16:01.508Z,83.87
2018-12-10T11:18:28.939Z,83.26
2018-12-10T11:20:56.399Z,83.64
2018-12-10T11:23:23.858Z,83.94
2018-12-10T11:25:51.505Z,84.19
2018-12-10T11:28:19.263Z,84.30
2018-12-10T11:30:46.739Z,84.37
2018-12-10T11:33:14.210Z,84.37
2018-12-10T11:35:41.822Z,84.42
2018-12-10T11:38:09.266Z,84.12
2018-12-10T11:40:36.715Z,84.00
2018-12-10T11:43:04.150Z,83.43
2018-12-10T11:45:31.595Z,83.37
2018-12-10T11:47:59.163Z,83.67
2018-12-10T11:50:26.831Z,84.08
2018-12-10T11:52:54.258Z,83.87
2018-12-10T11:55:21.848Z,83.50
2018-12-10T11:57:49.264Z,83.62
2018-12-10T12:00:16.786Z,83.90
2018-12-10T12:02:44.234Z,84.10
2018-12-10T12:05:11.793Z,84.15
2018-12-10T12:07:39.236Z,83.94
2018-12-10T12:10:06.947Z,84.22
2018-12-10T12:12:34.467Z,84.56
2018-12-10T12:15:01.895Z,84.48
2018-12-10T12:17:29.337Z,84.83
2018-12-10T12:19:56.735Z,84.96
2018-12-10T12:22:24.199Z,85.46
2018-12-10T12:24:51.605Z,85.60
2018-12-10T12:27:19.159Z,85.80
2018-12-10T12:29:46.583Z,86.08
2018-12-10T12:32:14.051Z,86.32
2018-12-10T12:34:41.486Z,86.01
2018-12-10T12:37:08.918Z,85.47
2018-12-10T12:39:36.561Z,85.58
2018-12-10T12:42:04.068Z,84.84
2018-12-10T12:44:31.618Z,84.84
2018-12-10T12:46:59.325Z,85.40
2018-12-10T12:49:26.847Z,84.09
2018-12-10T12:51:54.340Z,84.69
2018-12-10T12:54:21.886Z,84.72
2018-12-10T12:56:49.347Z,84.32
2018-12-10T12:59:16.782Z,84.40
2018-12-10T13:01:49.104Z,84.11
2018-12-10T13:04:14.010Z,83.94
2018-12-10T13:06:41.541Z,83.26
2018-12-10T13:09:08.975Z,83.74
2018-12-10T13:11:37.182Z,84.06
2018-12-10T13:14:04.778Z,83.94
2018-12-10T13:16:32.198Z,83.99
2018-12-10T13:18:59.668Z,84.36
2018-12-10T13:21:27.206Z,83.99
2018-12-10T13:23:54.735Z,84.02
2018-12-10T13:26:22.251Z,83.76
2018-12-10T13:28:49.676Z,84.06
2018-12-10T13:31:17.115Z,83.48
2018-12-10T13:33:44.545Z,83.69
2018-12-10T13:36:11.977Z,83.00
2018-12-10T13:38:39.380Z,83.49
2018-12-10T13:41:06.825Z,83.20
2018-12-10T13:43:34.246Z,83.14
2018-12-10T13:46:01.776Z,83.02
2018-12-10T13:48:29.323Z,83.18
2018-12-10T13:50:56.765Z,83.11
2018-12-10T13:53:24.271Z,83.23
2018-12-10T13:55:51.873Z,83.11
2018-12-10T13:58:19.323Z,83.04
2018-12-10T14:00:51.052Z,82.80
2018-12-10T14:03:16.720Z,82.67
2018-12-10T14:05:47.530Z,82.39
2018-12-10T14:08:13.599Z,81.37
2018-12-10T14:10:41.007Z,81.46
2018-12-10T14:13:08.447Z,80.55
2018-12-10T14:15:35.862Z,80.54
2018-12-10T14:18:03.369Z,80.53
2018-12-10T14:20:30.852Z,80.51
2018-12-10T14:22:58.398Z,80.45
2018-12-10T14:25:25.960Z,80.10
2018-12-10T14:27:53.590Z,79.90
2018-12-10T14:30:21.173Z,80.29
2018-12-10T14:32:48.672Z,80.39
2018-12-10T14:35:16.098Z,80.90
2018-12-10T14:37:43.615Z,81.21
2018-12-10T14:40:11.145Z,81.61
2018-12-10T14:42:55.616Z,81.95
2018-12-10T14:45:23.338Z,82.53
2018-12-10T14:47:51.443Z,82.84
2018-12-10T14:50:18.952Z,83.42
2018-12-10T14:52:46.487Z,83.54
2018-12-10T14:55:13.937Z,83.85
2018-12-10T14:57:41.427Z,84.05
2018-12-10T15:00:10.392Z,84.17
2018-12-10T15:02:37.803Z,84.65
2018-12-10T15:05:06.674Z,84.43
2018-12-10T15:07:34.106Z,84.67
2018-12-10T15:10:01.544Z,84.70
2018-12-10T15:12:28.957Z,84.47
2018-12-10T15:14:56.398Z,84.46
2018-12-10T15:17:23.849Z,84.74
2018-12-10T15:19:51.406Z,84.77
2018-12-10T15:22:18.836Z,84.80
2018-12-10T15:24:46.327Z,84.86
2018-12-10T15:27:13.861Z,84.50
2018-12-10T15:29:41.286Z,84.51
2018-12-10T15:32:08.699Z,84.82
2018-12-10T15:34:41.154Z,84.89
2018-12-10T15:37:08.603Z,85.24
2018-12-10T15:39:36.014Z,85.37
2018-12-10T15:42:03.533Z,85.37
2018-12-10T15:44:30.955Z,85.58
2018-12-10T15:46:58.372Z,85.33
2018-12-10T15:49:25.908Z,85.48
2018-12-10T15:51:53.347Z,85.37
2018-12-10T15:54:20.835Z,85.20
2018-12-10T15:56:48.306Z,85.11
2018-12-10T15:59:15.724Z,84.67
2018-12-10T16:01:43.155Z,84.53
2018-12-10T16:04:10.564Z,84.70
2018-12-10T16:06:38.021Z,84.32
2018-12-10T16:09:06.903Z,84.83
2018-12-10T16:11:34.368Z,84.36
2018-12-10T16:14:01.766Z,84.32
2018-12-10T16:16:29.191Z,84.47
2018-12-10T16:18:56.638Z,84.38
2018-12-10T16:21:24.057Z,84.91
2018-12-10T16:23:52.430Z,85.20
2018-12-10T16:26:19.842Z,84.97
2018-12-10T16:28:47.290Z,85.08
2018-12-10T16:31:14.704Z,85.38
2018-12-10T16:33:42.336Z,85.46
2018-12-10T16:36:10.192Z,85.22
2018-12-10T16:38:37.623Z,85.62
2018-12-10T16:41:05.198Z,85.28
2018-12-10T16:43:32.631Z,85.23
2018-12-10T16:46:00.117Z,85.46
2018-12-10T16:48:27.570Z,85.44
2018-12-10T16:50:54.989Z,85.13
2018-12-10T16:53:22.406Z,85.25
2018-12-10T16:55:49.841Z,85.30
2018-12-10T16:58:17.336Z,85.39
2018-12-10T17:00:44.754Z,85.61
2018-12-10T17:03:12.174Z,84.89
2018-12-10T17:05:39.689Z,85.22
2018-12-10T17:08:07.315Z,85.28
2018-12-10T17:10:34.743Z,85.14
2018-12-10T17:13:02.284Z,85.28
2018-12-10T17:15:29.720Z,85.05
2018-12-10T17:17:57.160Z,85.32
2018-12-10T17:20:24.605Z,85.01
2018-12-10T17:22:52.381Z,85.09
2018-12-10T17:25:19.805Z,84.82
2018-12-10T17:27:47.324Z,84.80
2018-12-10T17:30:14.746Z,84.80
2018-12-10T17:32:42.191Z,84.45
2018-12-10T17:35:09.601Z,84.58
2018-12-10T17:37:37.087Z,84.70
2018-12-10T17:40:05.076Z,84.40
2018-12-10T17:42:39.538Z,84.49
2018-12-10T17:45:08.734Z,84.41
2018-12-10T17:47:36.223Z,84.52
2018-12-10T17:50:04.712Z,84.66
2018-12-10T17:52:32.181Z,84.85
2018-12-10T17:55:00.182Z,85.08
2018-12-10T17:57:27.607Z,84.88
2018-12-10T17:59:55.323Z,85.39
2018-12-10T18:02:26.821Z,85.30
2018-12-10T18:04:54.570Z,85.16
2018-12-10T18:07:22.004Z,85.45
2018-12-10T18:09:49.586Z,85.52
2018-12-10T18:12:17.006Z,85.50
2018-12-10T18:14:44.450Z,85.73
2018-12-10T18:17:11.978Z,85.58
2018-12-10T18:19:39.418Z,85.49
2018-12-10T18:22:06.835Z,85.43
2018-12-10T18:24:34.273Z,85.81
2018-12-10T18:27:01.771Z,85.54
2018-12-10T18:29:29.231Z,85.64
2018-12-10T18:31:56.926Z,85.85
2018-12-10T18:34:24.357Z,85.64
2018-12-10T18:36:51.778Z,85.95
2018-12-10T18:39:19.237Z,85.48
2018-12-10T18:41:46.675Z,85.58
2018-12-10T18:44:14.123Z,85.73
2018-12-10T18:46:41.649Z,85.43
2018-12-10T18:49:09.122Z,85.73
2018-12-10T18:51:36.574Z,85.74
2018-12-10T18:54:04.069Z,85.69
2018-12-10T18:56:31.787Z,85.84
2018-12-10T18:58:59.286Z,86.17
2018-12-10T19:01:26.709Z,85.40
2018-12-10T19:03:54.132Z,85.69
2018-12-10T19:06:21.562Z,85.99
2018-12-10T19:08:49.680Z,86.02
2018-12-10T19:11:17.565Z,85.71
2018-12-10T19:13:49.849Z,86.08
2018-12-10T19:16:14.601Z,86.03
2018-12-10T19:18:42.034Z,85.82
2018-12-10T19:21:09.532Z,86.20
2018-12-10T19:23:36.969Z,86.13
2018-12-10T19:26:04.485Z,86.14
2018-12-10T19:28:31.950Z,85.97
2018-12-10T19:30:59.360Z,86.14
2018-12-10T19:33:26.964Z,86.26
2018-12-10T19:35:54.492Z,86.31
2018-12-10T19:38:21.948Z,86.39
2018-12-10T19:40:49.355Z,86.18
2018-12-10T19:43:16.803Z,86.14
2018-12-10T19:45:44.225Z,86.35
2018-12-10T19:48:11.845Z,86.17
2018-12-10T19:50:39.267Z,86.21
2018-12-10T19:53:06.699Z,86.45
2018-12-10T19:55:34.133Z,86.19
2018-12-10T19:58:01.668Z,86.78
2018-12-10T20:00:29.122Z,86.70
2018-12-10T20:02:56.811Z,86.53
2018-12-10T20:05:26.283Z,86.37
2018-12-10T20:07:53.774Z,86.06
2018-12-10T20:10:21.192Z,86.35
2018-12-10T20:12:48.647Z,85.97
2018-12-10T20:15:16.190Z,86.45
2018-12-10T20:17:43.598Z,86.46
2018-12-10T20:20:11.061Z,86.23
2018-12-10T20:22:38.503Z,86.25
2018-12-10T20:25:07.185Z,85.99
2018-12-10T20:27:34.696Z,85.59
2018-12-10T20:30:07.323Z,86.12
2018-12-10T20:32:34.781Z,86.46
2018-12-10T20:35:02.476Z,85.89
2018-12-10T20:37:30.318Z,86.08
2018-12-10T20:39:57.970Z,86.33
2018-12-10T20:42:25.412Z,85.70
2018-12-10T20:44:52.837Z,85.59
2018-12-10T20:47:20.382Z,85.81
2018-12-10T20:49:47.819Z,85.94
2018-12-10T20:52:15.261Z,85.52
2018-12-10T20:54:42.700Z,85.55
2018-12-10T20:57:10.151Z,85.19
2018-12-10T20:59:37.583Z,85.66
2018-12-10T21:02:05.207Z,85.57
2018-12-10T21:04:32.713Z,85.57
2018-12-10T21:07:00.183Z,85.59
2018-12-10T21:09:27.627Z,85.37
2018-12-10T21:11:55.099Z,85.53
2018-12-10T21:14:22.531Z,85.53
2018-12-10T21:16:49.987Z,85.86
2018-12-10T21:19:17.464Z,85.96
2018-12-10T21:21:45.070Z,85.91
2018-12-10T21:24:12.522Z,85.78
2018-12-10T21:26:39.942Z,85.88
2018-12-10T21:29:07.483Z,86.34
2018-12-10T21:31:34.923Z,85.98
2018-12-10T21:34:02.360Z,86.42
2018-12-10T21:36:29.922Z,86.01
2018-12-10T21:38:57.347Z,86.01
2018-12-10T21:41:25.077Z,85.72
2018-12-10T21:43:52.506Z,86.00
2018-12-10T21:46:19.939Z,85.77
2018-12-10T21:48:47.393Z,85.70
2018-12-10T21:51:14.822Z,85.88
2018-12-10T21:53:42.268Z,85.67
2018-12-10T21:56:09.796Z,86.03
2018-12-10T21:58:37.508Z,85.99
2018-12-10T22:01:04.954Z,85.73
2018-12-10T22:03:32.462Z,85.78
2018-12-10T22:06:00.795Z,85.87
2018-12-10T22:08:28.256Z,85.92
2018-12-10T22:10:55.844Z,85.72
2018-12-10T22:13:23.473Z,85.63
2018-12-10T22:15:50.943Z,85.96
2018-12-10T22:18:18.383Z,85.46
2018-12-10T22:20:45.948Z,85.67
2018-12-10T22:23:13.600Z,86.03
2018-12-10T22:25:41.054Z,85.73
2018-12-10T22:28:08.494Z,85.80
2018-12-10T22:30:35.926Z,85.67
2018-12-10T22:33:03.511Z,85.30
2018-12-10T22:35:30.960Z,85.80
2018-12-10T22:37:58.475Z,85.55
2018-12-10T22:40:26.107Z,85.34
2018-12-10T22:42:53.648Z,85.34
2018-12-10T22:45:21.597Z,85.19
2018-12-10T22:47:49.052Z,85.06
2018-12-10T22:50:16.664Z,85.36
2018-12-10T22:52:44.091Z,84.79
2018-12-10T22:55:11.545Z,84.94
2018-12-10T22:57:39.203Z,84.80
2018-12-10T23:00:09.027Z,84.96
2018-12-10T23:02:36.576Z,84.81
2018-12-10T23:05:04.461Z,84.79
2018-12-10T23:07:31.920Z,85.01
2018-12-10T23:09:59.319Z,84.74
2018-12-10T23:12:26.759Z,84.97
2018-12-10T23:14:54.203Z,84.99
2018-12-10T23:17:21.766Z,85.29
2018-12-10T23:19:49.434Z,84.96
2018-12-10T23:22:17.034Z,85.01
2018-12-10T23:24:44.516Z,85.03
2018-12-10T23:27:11.960Z,84.80
2018-12-10T23:29:39.394Z,84.96
2018-12-10T23:32:06.818Z,84.80
2018-12-10T23:34:34.268Z,84.88
2018-12-10T23:37:01.787Z,85.39
2018-12-10T23:39:29.226Z,85.22
2018-12-10T23:41:56.686Z,85.08
2018-12-10T23:47:22.338Z,84.87
2018-12-10T23:49:49.779Z,84.95
2018-12-10T23:52:17.191Z,85.10
2018-12-10T23:54:44.622Z,85.19
2018-12-10T23:57:12.042Z,85.51
2018-12-10T23:59:39.790Z,85.34
